sensor_id;sensor_type;location;lat;lon;timestamp;temperature;humidity
2783;DHT22;1399;47.072;15.452;2022-09-09T00:02:05;18.50;79.50
2783;DHT22;1399;47.072;15.452;2022-09-09T00:04:39;18.40;79.50
2783;DHT22;1399;47.072;15.452;2022-09-09T00:07:28;18.40;79.70
2783;DHT22;1399;47.072;15.452;2022-09-09T00:15:59;18.30;80.00
2783;DHT22;1399;47.072;15.452;2022-09-09T00:21:07;18.20;80.20
2783;DHT22;1399;47.072;15.452;2022-09-09T00:23:53;18.20;80.30
2783;DHT22;1399;47.072;15.452;2022-09-09T00:31:38;18.10;80.50
2783;DHT22;1399;47.072;15.452;2022-09-09T00:34:23;18.10;80.70
2783;DHT22;1399;47.072;15.452;2022-09-09T00:36:52;18.10;80.80
2783;DHT22;1399;47.072;15.452;2022-09-09T00:44:38;18.00;81.00
2783;DHT22;1399;47.072;15.452;2022-09-09T00:52:32;17.90;81.00
2783;DHT22;1399;47.072;15.452;2022-09-09T00:55:21;17.90;81.10
2783;DHT22;1399;47.072;15.452;2022-09-09T00:57:52;17.90;81.10
2783;DHT22;1399;47.072;15.452;2022-09-09T01:00:31;17.90;81.20
2783;DHT22;1399;47.072;15.452;2022-09-09T01:11:19;17.80;81.10
2783;DHT22;1399;47.072;15.452;2022-09-09T01:13:52;17.70;81.10
2783;DHT22;1399;47.072;15.452;2022-09-09T01:16:19;17.70;81.10
2783;DHT22;1399;47.072;15.452;2022-09-09T01:18:49;17.70;81.20
2783;DHT22;1399;47.072;15.452;2022-09-09T01:26:46;17.70;81.20
2783;DHT22;1399;47.072;15.452;2022-09-09T01:29:15;17.60;81.10
2783;DHT22;1399;47.072;15.452;2022-09-09T01:32:03;17.60;81.10
2783;DHT22;1399;47.072;15.452;2022-09-09T01:34:47;17.60;81.10
2783;DHT22;1399;47.072;15.452;2022-09-09T01:37:13;17.60;81.10
2783;DHT22;1399;47.072;15.452;2022-09-09T01:39:41;17.60;81.10
2783;DHT22;1399;47.072;15.452;2022-09-09T01:42:12;17.60;81.10
2783;DHT22;1399;47.072;15.452;2022-09-09T01:44:39;17.50;81.00
2783;DHT22;1399;47.072;15.452;2022-09-09T01:47:05;17.60;82.10
2783;DHT22;1399;47.072;15.452;2022-09-09T01:49:32;17.60;81.20
2783;DHT22;1399;47.072;15.452;2022-09-09T01:51:59;17.50;81.10
2783;DHT22;1399;47.072;15.452;2022-09-09T01:54:31;17.50;81.10
2783;DHT22;1399;47.072;15.452;2022-09-09T01:57:09;17.50;81.00
2783;DHT22;1399;47.072;15.452;2022-09-09T01:59:41;17.50;81.10
2783;DHT22;1399;47.072;15.452;2022-09-09T02:02:33;17.50;81.10
2783;DHT22;1399;47.072;15.452;2022-09-09T02:05:16;17.40;81.10
2783;DHT22;1399;47.072;15.452;2022-09-09T02:07:50;17.40;81.00
2783;DHT22;1399;47.072;15.452;2022-09-09T02:10:22;17.40;81.00
2783;DHT22;1399;47.072;15.452;2022-09-09T02:13:05;17.40;81.00
2783;DHT22;1399;47.072;15.452;2022-09-09T02:18:23;17.40;81.10
2783;DHT22;1399;47.072;15.452;2022-09-09T02:20:51;17.40;81.10
2783;DHT22;1399;47.072;15.452;2022-09-09T02:23:19;17.40;81.10
2783;DHT22;1399;47.072;15.452;2022-09-09T02:25:46;17.30;81.10
2783;DHT22;1399;47.072;15.452;2022-09-09T02:28:14;17.40;81.20
2783;DHT22;1399;47.072;15.452;2022-09-09T02:30:42;17.30;81.10
2783;DHT22;1399;47.072;15.452;2022-09-09T02:33:14;17.30;81.10
2783;DHT22;1399;47.072;15.452;2022-09-09T02:35:41;17.30;81.10
2783;DHT22;1399;47.072;15.452;2022-09-09T02:38:12;17.30;81.10
2783;DHT22;1399;47.072;15.452;2022-09-09T02:40:38;17.30;81.10
2783;DHT22;1399;47.072;15.452;2022-09-09T02:43:04;17.30;81.00
2783;DHT22;1399;47.072;15.452;2022-09-09T02:45:58;17.30;80.90
2783;DHT22;1399;47.072;15.452;2022-09-09T02:56:49;17.30;80.70
2783;DHT22;1399;47.072;15.452;2022-09-09T02:59:16;17.30;80.70
2783;DHT22;1399;47.072;15.452;2022-09-09T03:01:43;17.30;80.70
2783;DHT22;1399;47.072;15.452;2022-09-09T03:04:09;17.30;80.70
2783;DHT22;1399;47.072;15.452;2022-09-09T03:06:35;17.30;81.60
2783;DHT22;1399;47.072;15.452;2022-09-09T03:09:01;17.30;80.70
2783;DHT22;1399;47.072;15.452;2022-09-09T03:11:28;17.30;80.80
2783;DHT22;1399;47.072;15.452;2022-09-09T03:13:54;17.30;80.80
2783;DHT22;1399;47.072;15.452;2022-09-09T03:16:22;17.30;80.80
2783;DHT22;1399;47.072;15.452;2022-09-09T03:18:48;17.30;80.80
2783;DHT22;1399;47.072;15.452;2022-09-09T03:21:17;17.30;80.80
2783;DHT22;1399;47.072;15.452;2022-09-09T03:23:43;17.30;80.80
2783;DHT22;1399;47.072;15.452;2022-09-09T03:26:10;17.30;80.80
2783;DHT22;1399;47.072;15.452;2022-09-09T03:28:36;17.30;80.70
2783;DHT22;1399;47.072;15.452;2022-09-09T03:31:04;17.30;80.70
2783;DHT22;1399;47.072;15.452;2022-09-09T03:33:30;17.30;80.70
2783;DHT22;1399;47.072;15.452;2022-09-09T03:35:57;17.30;80.70
2783;DHT22;1399;47.072;15.452;2022-09-09T03:38:26;17.30;80.60
2783;DHT22;1399;47.072;15.452;2022-09-09T03:40:53;17.30;80.60
2783;DHT22;1399;47.072;15.452;2022-09-09T03:43:26;17.30;80.60
2783;DHT22;1399;47.072;15.452;2022-09-09T03:45:53;17.30;80.60
2783;DHT22;1399;47.072;15.452;2022-09-09T03:48:22;17.30;80.70
2783;DHT22;1399;47.072;15.452;2022-09-09T03:50:50;17.30;80.70
2783;DHT22;1399;47.072;15.452;2022-09-09T03:53:18;17.20;80.60
2783;DHT22;1399;47.072;15.452;2022-09-09T03:55:45;17.20;80.70
2783;DHT22;1399;47.072;15.452;2022-09-09T03:58:13;17.20;80.70
2783;DHT22;1399;47.072;15.452;2022-09-09T04:00:39;17.20;80.70
2783;DHT22;1399;47.072;15.452;2022-09-09T04:03:11;17.20;80.80
2783;DHT22;1399;47.072;15.452;2022-09-09T04:05:40;17.20;80.90
2783;DHT22;1399;47.072;15.452;2022-09-09T04:08:07;17.20;81.00
2783;DHT22;1399;47.072;15.452;2022-09-09T04:10:34;17.20;81.00
2783;DHT22;1399;47.072;15.452;2022-09-09T04:13:06;17.10;80.90
2783;DHT22;1399;47.072;15.452;2022-09-09T04:15:32;17.20;81.00
2783;DHT22;1399;47.072;15.452;2022-09-09T04:17:58;17.20;81.00
2783;DHT22;1399;47.072;15.452;2022-09-09T04:20:24;17.20;81.00
2783;DHT22;1399;47.072;15.452;2022-09-09T04:22:50;17.20;81.00
2783;DHT22;1399;47.072;15.452;2022-09-09T04:25:15;17.20;81.00
2783;DHT22;1399;47.072;15.452;2022-09-09T04:27:41;17.20;80.90
2783;DHT22;1399;47.072;15.452;2022-09-09T04:30:08;17.20;80.90
2783;DHT22;1399;47.072;15.452;2022-09-09T04:32:34;17.10;80.70
2783;DHT22;1399;47.072;15.452;2022-09-09T04:35:02;17.20;80.90
2783;DHT22;1399;47.072;15.452;2022-09-09T04:37:28;17.20;80.90
2783;DHT22;1399;47.072;15.452;2022-09-09T04:39:53;17.20;80.90
2783;DHT22;1399;47.072;15.452;2022-09-09T04:42:19;17.20;80.90
2783;DHT22;1399;47.072;15.452;2022-09-09T04:44:45;17.20;80.80
2783;DHT22;1399;47.072;15.452;2022-09-09T04:47:11;17.20;80.90
2783;DHT22;1399;47.072;15.452;2022-09-09T04:49:37;17.20;80.80
2783;DHT22;1399;47.072;15.452;2022-09-09T04:52:04;17.20;80.90
2783;DHT22;1399;47.072;15.452;2022-09-09T04:54:30;17.20;80.90
2783;DHT22;1399;47.072;15.452;2022-09-09T04:56:56;17.20;80.90
2783;DHT22;1399;47.072;15.452;2022-09-09T04:59:22;17.20;80.80
2783;DHT22;1399;47.072;15.452;2022-09-09T05:01:48;17.30;80.80
2783;DHT22;1399;47.072;15.452;2022-09-09T05:04:16;17.30;80.70
2783;DHT22;1399;47.072;15.452;2022-09-09T05:06:41;17.30;80.70
2783;DHT22;1399;47.072;15.452;2022-09-09T05:09:08;17.30;80.70
2783;DHT22;1399;47.072;15.452;2022-09-09T05:11:35;17.30;80.50
2783;DHT22;1399;47.072;15.452;2022-09-09T05:14:02;17.30;80.40
2783;DHT22;1399;47.072;15.452;2022-09-09T05:16:28;17.30;80.40
2783;DHT22;1399;47.072;15.452;2022-09-09T05:18:54;17.40;80.50
2783;DHT22;1399;47.072;15.452;2022-09-09T05:21:21;17.40;80.40
2783;DHT22;1399;47.072;15.452;2022-09-09T05:23:48;17.40;80.20
2783;DHT22;1399;47.072;15.452;2022-09-09T05:26:19;17.40;80.10
2783;DHT22;1399;47.072;15.452;2022-09-09T05:28:46;17.50;80.20
2783;DHT22;1399;47.072;15.452;2022-09-09T05:31:13;17.50;80.00
2783;DHT22;1399;47.072;15.452;2022-09-09T05:33:41;17.50;79.90
2783;DHT22;1399;47.072;15.452;2022-09-09T05:36:13;17.50;79.70
2783;DHT22;1399;47.072;15.452;2022-09-09T05:38:40;17.60;79.70
2783;DHT22;1399;47.072;15.452;2022-09-09T05:41:07;17.60;79.60
2783;DHT22;1399;47.072;15.452;2022-09-09T05:43:33;17.60;79.40
2783;DHT22;1399;47.072;15.452;2022-09-09T05:46:05;17.70;79.40
2783;DHT22;1399;47.072;15.452;2022-09-09T05:48:33;17.80;79.30
2783;DHT22;1399;47.072;15.452;2022-09-09T05:51:00;17.80;79.00
2783;DHT22;1399;47.072;15.452;2022-09-09T05:53:26;17.90;79.00
2783;DHT22;1399;47.072;15.452;2022-09-09T05:58:32;18.00;78.80
2783;DHT22;1399;47.072;15.452;2022-09-09T06:03:33;18.00;78.40
2783;DHT22;1399;47.072;15.452;2022-09-09T06:06:00;18.10;78.40
2783;DHT22;1399;47.072;15.452;2022-09-09T06:08:26;18.10;78.20
2783;DHT22;1399;47.072;15.452;2022-09-09T06:10:52;18.20;78.00
2783;DHT22;1399;47.072;15.452;2022-09-09T06:13:18;18.20;77.80
2783;DHT22;1399;47.072;15.452;2022-09-09T06:15:51;18.20;77.60
2783;DHT22;1399;47.072;15.452;2022-09-09T06:18:18;18.20;77.40
2783;DHT22;1399;47.072;15.452;2022-09-09T06:20:54;18.30;77.30
2783;DHT22;1399;47.072;15.452;2022-09-09T06:23:20;18.30;77.10
2783;DHT22;1399;47.072;15.452;2022-09-09T06:25:46;18.30;76.90
2783;DHT22;1399;47.072;15.452;2022-09-09T06:28:12;18.30;76.70
2783;DHT22;1399;47.072;15.452;2022-09-09T06:30:39;18.40;76.80
2783;DHT22;1399;47.072;15.452;2022-09-09T06:33:05;18.50;76.50
2783;DHT22;1399;47.072;15.452;2022-09-09T06:35:31;18.60;76.30
2783;DHT22;1399;47.072;15.452;2022-09-09T06:37:56;18.70;76.10
2783;DHT22;1399;47.072;15.452;2022-09-09T06:40:24;18.80;75.90
2783;DHT22;1399;47.072;15.452;2022-09-09T06:42:50;18.90;75.70
2783;DHT22;1399;47.072;15.452;2022-09-09T06:45:16;19.00;75.60
2783;DHT22;1399;47.072;15.452;2022-09-09T06:47:43;19.00;75.30
2783;DHT22;1399;47.072;15.452;2022-09-09T06:50:09;19.20;75.10
2783;DHT22;1399;47.072;15.452;2022-09-09T06:52:36;19.20;74.60
2783;DHT22;1399;47.072;15.452;2022-09-09T06:55:03;19.40;74.30
2783;DHT22;1399;47.072;15.452;2022-09-09T06:57:29;19.40;73.90
2783;DHT22;1399;47.072;15.452;2022-09-09T06:59:55;19.40;73.60
2783;DHT22;1399;47.072;15.452;2022-09-09T07:02:20;19.40;73.50
2783;DHT22;1399;47.072;15.452;2022-09-09T07:04:47;19.50;73.40
2783;DHT22;1399;47.072;15.452;2022-09-09T07:07:13;19.40;73.10
2783;DHT22;1399;47.072;15.452;2022-09-09T07:09:40;19.40;73.10
2783;DHT22;1399;47.072;15.452;2022-09-09T07:12:06;19.40;73.90
2783;DHT22;1399;47.072;15.452;2022-09-09T07:14:32;19.40;73.00
2783;DHT22;1399;47.072;15.452;2022-09-09T07:16:59;19.40;73.00
2783;DHT22;1399;47.072;15.452;2022-09-09T07:19:25;19.40;73.00
2783;DHT22;1399;47.072;15.452;2022-09-09T07:21:51;19.40;73.00
2783;DHT22;1399;47.072;15.452;2022-09-09T07:24:17;19.40;72.90
2783;DHT22;1399;47.072;15.452;2022-09-09T07:26:43;19.40;72.90
2783;DHT22;1399;47.072;15.452;2022-09-09T07:29:09;19.40;72.70
2783;DHT22;1399;47.072;15.452;2022-09-09T07:31:39;19.40;72.70
2783;DHT22;1399;47.072;15.452;2022-09-09T07:34:05;19.40;72.60
2783;DHT22;1399;47.072;15.452;2022-09-09T07:36:33;19.40;72.70
2783;DHT22;1399;47.072;15.452;2022-09-09T07:39:08;19.40;72.60
2783;DHT22;1399;47.072;15.452;2022-09-09T07:41:41;19.40;72.60
2783;DHT22;1399;47.072;15.452;2022-09-09T07:44:11;19.40;72.50
2783;DHT22;1399;47.072;15.452;2022-09-09T07:46:38;19.40;72.40
2783;DHT22;1399;47.072;15.452;2022-09-09T07:49:07;19.50;72.50
2783;DHT22;1399;47.072;15.452;2022-09-09T07:51:39;19.50;72.60
2783;DHT22;1399;47.072;15.452;2022-09-09T07:54:08;19.50;72.60
2783;DHT22;1399;47.072;15.452;2022-09-09T07:56:35;19.50;72.60
2783;DHT22;1399;47.072;15.452;2022-09-09T07:59:02;19.60;73.70
2783;DHT22;1399;47.072;15.452;2022-09-09T08:01:40;19.60;72.90
2783;DHT22;1399;47.072;15.452;2022-09-09T08:04:08;19.60;72.80
2783;DHT22;1399;47.072;15.452;2022-09-09T08:06:39;19.60;72.80
2783;DHT22;1399;47.072;15.452;2022-09-09T08:09:06;19.60;72.80
2783;DHT22;1399;47.072;15.452;2022-09-09T08:11:32;19.60;72.60
2783;DHT22;1399;47.072;15.452;2022-09-09T08:13:59;19.60;72.50
2783;DHT22;1399;47.072;15.452;2022-09-09T08:16:27;19.70;72.50
2783;DHT22;1399;47.072;15.452;2022-09-09T08:18:53;19.70;72.40
2783;DHT22;1399;47.072;15.452;2022-09-09T08:21:25;19.70;72.30
2783;DHT22;1399;47.072;15.452;2022-09-09T08:23:52;19.70;72.20
2783;DHT22;1399;47.072;15.452;2022-09-09T08:26:30;19.70;72.10
2783;DHT22;1399;47.072;15.452;2022-09-09T08:28:58;19.80;72.10
2783;DHT22;1399;47.072;15.452;2022-09-09T08:31:30;19.80;72.10
2783;DHT22;1399;47.072;15.452;2022-09-09T08:33:58;19.80;72.00
2783;DHT22;1399;47.072;15.452;2022-09-09T08:36:26;19.80;72.00
2783;DHT22;1399;47.072;15.452;2022-09-09T08:38:55;19.90;72.00
2783;DHT22;1399;47.072;15.452;2022-09-09T08:57:41;19.90;71.80
2783;DHT22;1399;47.072;15.452;2022-09-09T09:00:10;20.00;72.00
2783;DHT22;1399;47.072;15.452;2022-09-09T09:02:44;20.00;71.90
2783;DHT22;1399;47.072;15.452;2022-09-09T09:05:15;20.00;71.90
2783;DHT22;1399;47.072;15.452;2022-09-09T09:12:48;20.00;71.60
2783;DHT22;1399;47.072;15.452;2022-09-09T09:15:22;20.10;71.50
2783;DHT22;1399;47.072;15.452;2022-09-09T09:17:48;20.20;71.30
2783;DHT22;1399;47.072;15.452;2022-09-09T09:20:15;20.30;71.00
2783;DHT22;1399;47.072;15.452;2022-09-09T09:22:50;20.40;70.60
2783;DHT22;1399;47.072;15.452;2022-09-09T09:25:30;20.60;70.30
2783;DHT22;1399;47.072;15.452;2022-09-09T09:31:11;20.80;69.70
2783;DHT22;1399;47.072;15.452;2022-09-09T09:33:56;20.90;69.20
2783;DHT22;1399;47.072;15.452;2022-09-09T09:36:42;21.00;68.90
2783;DHT22;1399;47.072;15.452;2022-09-09T09:39:10;21.10;68.50
2783;DHT22;1399;47.072;15.452;2022-09-09T09:41:39;21.10;68.20
2783;DHT22;1399;47.072;15.452;2022-09-09T09:46:47;21.20;68.00
2783;DHT22;1399;47.072;15.452;2022-09-09T09:49:13;21.20;67.80
2783;DHT22;1399;47.072;15.452;2022-09-09T09:51:40;21.20;67.90
2783;DHT22;1399;47.072;15.452;2022-09-09T09:54:27;21.20;68.00
2783;DHT22;1399;47.072;15.452;2022-09-09T09:56:54;21.20;68.10
2783;DHT22;1399;47.072;15.452;2022-09-09T10:02:05;21.20;67.90
2783;DHT22;1399;47.072;15.452;2022-09-09T10:04:31;21.20;67.80
2783;DHT22;1399;47.072;15.452;2022-09-09T10:07:10;21.20;67.70
2783;DHT22;1399;47.072;15.452;2022-09-09T10:09:36;21.30;67.80
2783;DHT22;1399;47.072;15.452;2022-09-09T10:14:55;21.30;67.70
2783;DHT22;1399;47.072;15.452;2022-09-09T10:23:20;21.20;67.80
2783;DHT22;1399;47.072;15.452;2022-09-09T10:28:58;21.20;67.70
2783;DHT22;1399;47.072;15.452;2022-09-09T10:43:04;21.40;67.10
2783;DHT22;1399;47.072;15.452;2022-09-09T10:48:27;21.60;66.90
2783;DHT22;1399;47.072;15.452;2022-09-09T10:51:38;21.60;66.60
2783;DHT22;1399;47.072;15.452;2022-09-09T10:57:05;21.60;66.60
2783;DHT22;1399;47.072;15.452;2022-09-09T10:59:38;21.70;66.70
2783;DHT22;1399;47.072;15.452;2022-09-09T11:02:21;21.70;66.70
2783;DHT22;1399;47.072;15.452;2022-09-09T11:05:03;21.70;66.70
2783;DHT22;1399;47.072;15.452;2022-09-09T11:10:16;21.70;66.70
2783;DHT22;1399;47.072;15.452;2022-09-09T11:12:46;21.70;66.80
2783;DHT22;1399;47.072;15.452;2022-09-09T11:15:36;21.70;66.80
2783;DHT22;1399;47.072;15.452;2022-09-09T11:18:05;21.70;66.80
2783;DHT22;1399;47.072;15.452;2022-09-09T11:20:34;21.70;66.80
2783;DHT22;1399;47.072;15.452;2022-09-09T11:23:11;21.70;66.80
2783;DHT22;1399;47.072;15.452;2022-09-09T11:25:44;21.60;66.70
2783;DHT22;1399;47.072;15.452;2022-09-09T11:34:27;21.60;66.80
2783;DHT22;1399;47.072;15.452;2022-09-09T11:42:33;21.70;66.70
2783;DHT22;1399;47.072;15.452;2022-09-09T11:45:09;21.70;66.50
2783;DHT22;1399;47.072;15.452;2022-09-09T11:47:36;21.70;66.50
2783;DHT22;1399;47.072;15.452;2022-09-09T11:50:27;21.80;66.50
2783;DHT22;1399;47.072;15.452;2022-09-09T11:53:05;21.80;66.40
2783;DHT22;1399;47.072;15.452;2022-09-09T11:55:34;21.80;66.40
2783;DHT22;1399;47.072;15.452;2022-09-09T11:58:00;21.90;66.40
2783;DHT22;1399;47.072;15.452;2022-09-09T12:00:37;21.90;66.40
2783;DHT22;1399;47.072;15.452;2022-09-09T12:03:04;21.90;66.40
2783;DHT22;1399;47.072;15.452;2022-09-09T12:05:43;21.90;66.20
2783;DHT22;1399;47.072;15.452;2022-09-09T12:08:15;21.90;66.20
2783;DHT22;1399;47.072;15.452;2022-09-09T12:10:56;22.00;66.20
2783;DHT22;1399;47.072;15.452;2022-09-09T12:13:24;22.00;66.10
2783;DHT22;1399;47.072;15.452;2022-09-09T12:15:53;22.00;66.00
2783;DHT22;1399;47.072;15.452;2022-09-09T12:18:39;22.00;66.00
2783;DHT22;1399;47.072;15.452;2022-09-09T12:21:27;22.00;65.90
2783;DHT22;1399;47.072;15.452;2022-09-09T12:24:02;22.10;65.90
2783;DHT22;1399;47.072;15.452;2022-09-09T12:26:46;22.00;65.80
2783;DHT22;1399;47.072;15.452;2022-09-09T12:34:47;22.10;66.00
2783;DHT22;1399;47.072;15.452;2022-09-09T12:37:29;22.10;66.10
2783;DHT22;1399;47.072;15.452;2022-09-09T12:40:04;22.10;66.00
2783;DHT22;1399;47.072;15.452;2022-09-09T12:42:31;22.10;66.10
2783;DHT22;1399;47.072;15.452;2022-09-09T12:45:00;22.10;66.10
2783;DHT22;1399;47.072;15.452;2022-09-09T12:47:38;22.10;66.00
2783;DHT22;1399;47.072;15.452;2022-09-09T12:50:25;22.10;66.00
2783;DHT22;1399;47.072;15.452;2022-09-09T12:52:55;22.20;66.00
2783;DHT22;1399;47.072;15.452;2022-09-09T12:55:27;22.10;65.90
2783;DHT22;1399;47.072;15.452;2022-09-09T12:57:54;22.20;65.90
2783;DHT22;1399;47.072;15.452;2022-09-09T13:00:23;22.20;66.00
2783;DHT22;1399;47.072;15.452;2022-09-09T13:02:56;22.20;66.00
2783;DHT22;1399;47.072;15.452;2022-09-09T13:05:36;22.20;66.00
2783;DHT22;1399;47.072;15.452;2022-09-09T13:08:04;22.10;65.90
2783;DHT22;1399;47.072;15.452;2022-09-09T13:10:38;22.10;65.90
2783;DHT22;1399;47.072;15.452;2022-09-09T13:13:17;22.10;65.90
2783;DHT22;1399;47.072;15.452;2022-09-09T13:15:51;22.10;65.90
2783;DHT22;1399;47.072;15.452;2022-09-09T13:18:22;22.10;65.90
2783;DHT22;1399;47.072;15.452;2022-09-09T13:20:49;22.00;65.80
2783;DHT22;1399;47.072;15.452;2022-09-09T13:23:16;22.00;65.80
2783;DHT22;1399;47.072;15.452;2022-09-09T13:25:59;22.00;65.90
2783;DHT22;1399;47.072;15.452;2022-09-09T13:28:27;21.90;65.90
2783;DHT22;1399;47.072;15.452;2022-09-09T13:31:04;21.90;66.10
2783;DHT22;1399;47.072;15.452;2022-09-09T13:33:39;21.90;66.10
2783;DHT22;1399;47.072;15.452;2022-09-09T13:36:12;21.90;66.20
2783;DHT22;1399;47.072;15.452;2022-09-09T13:39:00;21.90;66.20
2783;DHT22;1399;47.072;15.452;2022-09-09T13:41:43;21.90;66.30
2783;DHT22;1399;47.072;15.452;2022-09-09T13:44:25;21.80;66.30
2783;DHT22;1399;47.072;15.452;2022-09-09T13:47:21;21.90;66.40
2783;DHT22;1399;47.072;15.452;2022-09-09T13:49:48;21.80;66.50
2783;DHT22;1399;47.072;15.452;2022-09-09T13:52:18;21.80;66.60
2783;DHT22;1399;47.072;15.452;2022-09-09T13:54:51;21.80;66.80
2783;DHT22;1399;47.072;15.452;2022-09-09T13:57:20;21.70;66.80
2783;DHT22;1399;47.072;15.452;2022-09-09T13:59:47;21.70;67.00
2783;DHT22;1399;47.072;15.452;2022-09-09T14:02:14;21.60;67.00
2783;DHT22;1399;47.072;15.452;2022-09-09T14:04:42;21.60;67.10
2783;DHT22;1399;47.072;15.452;2022-09-09T14:07:15;21.60;67.20
2783;DHT22;1399;47.072;15.452;2022-09-09T14:09:42;21.50;67.30
2783;DHT22;1399;47.072;15.452;2022-09-09T14:12:11;21.50;67.40
2783;DHT22;1399;47.072;15.452;2022-09-09T14:14:38;21.50;67.50
2783;DHT22;1399;47.072;15.452;2022-09-09T14:17:04;21.50;67.70
2783;DHT22;1399;47.072;15.452;2022-09-09T14:19:30;21.50;67.90
2783;DHT22;1399;47.072;15.452;2022-09-09T14:21:57;21.50;68.00
2783;DHT22;1399;47.072;15.452;2022-09-09T14:24:23;21.40;68.00
2783;DHT22;1399;47.072;15.452;2022-09-09T14:26:49;21.40;68.20
2783;DHT22;1399;47.072;15.452;2022-09-09T14:29:14;21.40;68.30
2783;DHT22;1399;47.072;15.452;2022-09-09T14:31:40;21.40;68.50
2783;DHT22;1399;47.072;15.452;2022-09-09T14:34:06;21.50;69.60
2783;DHT22;1399;47.072;15.452;2022-09-09T14:36:32;21.40;68.80
2783;DHT22;1399;47.072;15.452;2022-09-09T14:38:57;21.40;69.00
2783;DHT22;1399;47.072;15.452;2022-09-09T14:41:24;21.40;69.30
2783;DHT22;1399;47.072;15.452;2022-09-09T14:43:50;21.40;69.60
2783;DHT22;1399;47.072;15.452;2022-09-09T14:46:19;21.40;69.80
2783;DHT22;1399;47.072;15.452;2022-09-09T14:48:45;21.40;70.20
2783;DHT22;1399;47.072;15.452;2022-09-09T14:51:19;21.30;70.40
2783;DHT22;1399;47.072;15.452;2022-09-09T14:53:46;21.40;71.70
2783;DHT22;1399;47.072;15.452;2022-09-09T14:56:18;21.30;71.00
2783;DHT22;1399;47.072;15.452;2022-09-09T14:58:44;21.30;71.30
2783;DHT22;1399;47.072;15.452;2022-09-09T15:01:12;21.30;71.50
2783;DHT22;1399;47.072;15.452;2022-09-09T15:03:40;21.30;71.90
2783;DHT22;1399;47.072;15.452;2022-09-09T15:06:07;21.20;71.90
2783;DHT22;1399;47.072;15.452;2022-09-09T15:08:36;21.20;72.10
2783;DHT22;1399;47.072;15.452;2022-09-09T15:11:03;21.20;72.30
2783;DHT22;1399;47.072;15.452;2022-09-09T15:13:29;21.20;72.50
2783;DHT22;1399;47.072;15.452;2022-09-09T15:15:55;21.10;72.70
2783;DHT22;1399;47.072;15.452;2022-09-09T15:18:21;21.10;73.40
2783;DHT22;1399;47.072;15.452;2022-09-09T15:20:47;21.10;73.10
2783;DHT22;1399;47.072;15.452;2022-09-09T15:23:14;21.10;73.30
2783;DHT22;1399;47.072;15.452;2022-09-09T15:25:51;21.10;73.50
2783;DHT22;1399;47.072;15.452;2022-09-09T15:28:17;21.10;73.70
2783;DHT22;1399;47.072;15.452;2022-09-09T15:30:43;21.00;73.90
2783;DHT22;1399;47.072;15.452;2022-09-09T15:33:10;21.00;74.20
2783;DHT22;1399;47.072;15.452;2022-09-09T15:35:36;21.10;74.60
2783;DHT22;1399;47.072;15.452;2022-09-09T15:38:03;21.00;74.80
2783;DHT22;1399;47.072;15.452;2022-09-09T15:40:31;21.00;75.00
2783;DHT22;1399;47.072;15.452;2022-09-09T15:42:58;21.00;75.40
2783;DHT22;1399;47.072;15.452;2022-09-09T15:45:24;21.00;75.70
2783;DHT22;1399;47.072;15.452;2022-09-09T15:47:50;21.00;76.00
2783;DHT22;1399;47.072;15.452;2022-09-09T15:50:15;21.00;76.40
2783;DHT22;1399;47.072;15.452;2022-09-09T15:52:41;20.90;76.60
2783;DHT22;1399;47.072;15.452;2022-09-09T15:55:07;20.90;77.00
2783;DHT22;1399;47.072;15.452;2022-09-09T15:57:34;20.90;77.30
2783;DHT22;1399;47.072;15.452;2022-09-09T16:00:02;20.90;77.60
2783;DHT22;1399;47.072;15.452;2022-09-09T16:02:29;20.80;77.80
2783;DHT22;1399;47.072;15.452;2022-09-09T16:04:58;20.80;78.20
2783;DHT22;1399;47.072;15.452;2022-09-09T16:07:26;20.80;78.30
2783;DHT22;1399;47.072;15.452;2022-09-09T16:09:52;20.70;78.40
2783;DHT22;1399;47.072;15.452;2022-09-09T16:12:18;20.70;78.60
2783;DHT22;1399;47.072;15.452;2022-09-09T16:14:44;20.80;78.80
2783;DHT22;1399;47.072;15.452;2022-09-09T16:17:10;20.80;79.00
2783;DHT22;1399;47.072;15.452;2022-09-09T16:19:37;20.70;78.90
2783;DHT22;1399;47.072;15.452;2022-09-09T16:22:04;20.70;79.10
2783;DHT22;1399;47.072;15.452;2022-09-09T16:24:30;20.70;79.20
2783;DHT22;1399;47.072;15.452;2022-09-09T16:26:56;20.70;79.40
2783;DHT22;1399;47.072;15.452;2022-09-09T16:29:22;20.70;79.50
2783;DHT22;1399;47.072;15.452;2022-09-09T16:31:49;20.60;79.50
2783;DHT22;1399;47.072;15.452;2022-09-09T16:34:17;20.60;79.60
2783;DHT22;1399;47.072;15.452;2022-09-09T16:36:44;20.60;79.70
2783;DHT22;1399;47.072;15.452;2022-09-09T16:39:12;20.60;79.80
2783;DHT22;1399;47.072;15.452;2022-09-09T16:41:39;20.60;80.00
2783;DHT22;1399;47.072;15.452;2022-09-09T16:44:09;20.50;80.00
2783;DHT22;1399;47.072;15.452;2022-09-09T16:46:40;20.50;80.10
2783;DHT22;1399;47.072;15.452;2022-09-09T16:49:08;20.50;80.30
2783;DHT22;1399;47.072;15.452;2022-09-09T16:51:40;20.50;80.40
2783;DHT22;1399;47.072;15.452;2022-09-09T16:54:07;20.40;80.40
2783;DHT22;1399;47.072;15.452;2022-09-09T16:56:35;20.40;80.50
2783;DHT22;1399;47.072;15.452;2022-09-09T16:59:09;20.40;80.70
2783;DHT22;1399;47.072;15.452;2022-09-09T17:01:37;20.40;80.90
2783;DHT22;1399;47.072;15.452;2022-09-09T17:04:07;20.40;81.10
2783;DHT22;1399;47.072;15.452;2022-09-09T17:06:33;20.30;81.10
2783;DHT22;1399;47.072;15.452;2022-09-09T17:09:02;20.30;81.30
2783;DHT22;1399;47.072;15.452;2022-09-09T17:11:28;20.30;81.50
2783;DHT22;1399;47.072;15.452;2022-09-09T17:13:55;20.30;81.60
2783;DHT22;1399;47.072;15.452;2022-09-09T17:16:23;20.20;81.60
2783;DHT22;1399;47.072;15.452;2022-09-09T17:18:50;20.20;81.70
2783;DHT22;1399;47.072;15.452;2022-09-09T17:21:19;20.20;81.90
2783;DHT22;1399;47.072;15.452;2022-09-09T17:23:45;20.20;82.00
2783;DHT22;1399;47.072;15.452;2022-09-09T17:26:15;20.20;82.10
2783;DHT22;1399;47.072;15.452;2022-09-09T17:28:42;20.10;82.10
2783;DHT22;1399;47.072;15.452;2022-09-09T17:31:10;20.10;82.20
2783;DHT22;1399;47.072;15.452;2022-09-09T17:33:38;20.10;82.30
2783;DHT22;1399;47.072;15.452;2022-09-09T17:36:08;20.10;82.50
2783;DHT22;1399;47.072;15.452;2022-09-09T17:38:35;20.10;82.50
2783;DHT22;1399;47.072;15.452;2022-09-09T17:43:28;20.00;82.70
2783;DHT22;1399;47.072;15.452;2022-09-09T17:45:53;20.00;82.80
2783;DHT22;1399;47.072;15.452;2022-09-09T17:48:20;20.00;82.80
2783;DHT22;1399;47.072;15.452;2022-09-09T17:50:45;19.90;82.90
2783;DHT22;1399;47.072;15.452;2022-09-09T17:53:11;19.90;83.00
2783;DHT22;1399;47.072;15.452;2022-09-09T17:55:37;19.90;83.10
2783;DHT22;1399;47.072;15.452;2022-09-09T17:58:03;19.90;83.10
2783;DHT22;1399;47.072;15.452;2022-09-09T18:00:29;19.90;83.20
2783;DHT22;1399;47.072;15.452;2022-09-09T18:02:55;19.80;83.30
2783;DHT22;1399;47.072;15.452;2022-09-09T18:05:21;19.80;83.30
2783;DHT22;1399;47.072;15.452;2022-09-09T18:07:47;19.80;83.50
2783;DHT22;1399;47.072;15.452;2022-09-09T18:10:13;19.80;83.50
2783;DHT22;1399;47.072;15.452;2022-09-09T18:12:39;19.80;83.50
2783;DHT22;1399;47.072;15.452;2022-09-09T18:15:05;19.80;83.60
2783;DHT22;1399;47.072;15.452;2022-09-09T18:17:31;19.70;83.50